Time;durP1;ratioP1;P1;durP2;ratioP2;P2;SDS_P1;SDS_P2;PMS_P1;PMS_P2;Temp;Humidity;BMP_temperature;BMP_pressure;BME280_temperature;BME280_humidity;BME280_pressure;Samples;Min_cycle;Max_cycle;Signal;HPM_P1;HPM_P2
2022/05/12 00:00:30;;;;;;;0.47;0.47;;;19.30;99.90;;;;;;5000431;28;20634;-82
2022/05/12 00:02:57;;;;;;;0.50;0.50;;;19.40;99.90;;;;;;5005537;28;20576;-82
2022/05/12 00:05:23;;;;;;;0.40;0.40;;;19.40;99.90;;;;;;5000954;28;20200;-82
2022/05/12 00:07:49;;;;;;;0.30;0.30;;;19.30;99.90;;;;;;5000038;28;20556;-83
2022/05/12 00:10:19;;;;;;;0.43;0.43;;;19.30;99.90;;;;;;5007267;28;20219;-82
2022/05/12 00:12:45;;;;;;;0.40;0.30;;;19.30;99.90;;;;;;5000623;28;20190;-82
2022/05/12 00:15:19;;;;;;;0.43;0.40;;;19.20;99.90;;;;;;5000702;28;20215;-82
2022/05/12 00:17:45;;;;;;;0.40;0.40;;;19.20;99.90;;;;;;4999777;28;20189;-83
2022/05/12 00:20:12;;;;;;;0.20;0.20;;;19.10;99.90;;;;;;4999969;28;20672;-82
2022/05/12 00:22:39;;;;;;;0.40;0.40;;;19.20;99.90;;;;;;5000419;28;20179;-82
2022/05/12 00:25:13;;;;;;;0.40;0.40;;;19.10;99.90;;;;;;5000348;28;20231;-83
2022/05/12 00:27:38;;;;;;;0.57;0.53;;;19.10;99.90;;;;;;5001186;28;20719;-82
2022/05/12 00:30:09;;;;;;;1.90;1.20;;;19.10;99.90;;;;;;5001757;28;20183;-82
2022/05/12 00:32:38;;;;;;;2.90;0.40;;;19.00;99.90;;;;;;5000691;28;20191;-82
2022/05/12 00:35:06;;;;;;;0.37;0.37;;;19.00;99.90;;;;;;5004686;28;20745;-82
2022/05/12 00:37:32;;;;;;;0.60;0.60;;;19.00;99.90;;;;;;4999945;28;20596;-83
2022/05/12 00:39:57;;;;;;;0.20;0.20;;;19.00;99.90;;;;;;5015044;28;20232;-83
2022/05/12 00:42:23;;;;;;;0.70;0.70;;;19.00;99.90;;;;;;4999484;28;20183;-83
2022/05/12 00:44:48;;;;;;;0.53;0.53;;;19.00;99.90;;;;;;5000036;28;20286;-81
2022/05/12 00:47:14;;;;;;;0.60;0.60;;;19.00;99.90;;;;;;5006010;28;20475;-83
2022/05/12 00:49:41;;;;;;;1.17;0.30;;;19.10;99.90;;;;;;4997721;28;20191;-81
2022/05/12 00:52:16;;;;;;;0.30;0.30;;;19.00;99.90;;;;;;5016042;28;20198;-81
2022/05/12 00:55:02;;;;;;;0.67;0.40;;;18.90;99.90;;;;;;5005826;28;20203;-82
2022/05/12 00:57:34;;;;;;;1.13;0.50;;;19.00;99.90;;;;;;4999362;28;20194;-82
2022/05/12 01:00:01;;;;;;;0.40;0.40;;;19.00;99.90;;;;;;5001910;28;20216;-82
2022/05/12 01:02:28;;;;;;;0.10;0.10;;;18.90;99.90;;;;;;4998132;28;20219;-82
2022/05/12 01:04:57;;;;;;;0.40;0.40;;;18.90;99.90;;;;;;5000045;28;20309;-82
2022/05/12 01:07:23;;;;;;;0.37;0.27;;;18.80;99.90;;;;;;4998966;28;20214;-82
2022/05/12 01:09:56;;;;;;;2.23;0.90;;;18.90;99.90;;;;;;5084739;27;20588;-82
2022/05/12 01:12:22;;;;;;;0.70;0.37;;;18.90;99.90;;;;;;5064767;28;20187;-83
2022/05/12 01:14:48;;;;;;;0.70;0.70;;;18.80;99.90;;;;;;5091465;28;20342;-83
2022/05/12 01:17:14;;;;;;;0.20;0.20;;;18.90;99.90;;;;;;5054569;28;20190;-82
2022/05/12 01:19:41;;;;;;;0.20;0.20;;;18.90;99.90;;;;;;5055228;28;20566;-83
2022/05/12 01:22:11;;;;;;;0.40;0.40;;;18.80;99.90;;;;;;5088295;28;20183;-82
2022/05/12 01:24:40;;;;;;;0.50;0.50;;;18.80;99.90;;;;;;5054445;28;20687;-83
2022/05/12 01:27:19;;;;;;;0.40;0.40;;;18.80;99.90;;;;;;5055517;28;20658;-83
2022/05/12 01:29:49;;;;;;;0.50;0.50;;;18.70;99.90;;;;;;5073791;28;20189;-84
2022/05/12 01:32:15;;;;;;;0.57;0.47;;;18.80;99.90;;;;;;5071498;28;20219;-82
2022/05/12 01:34:41;;;;;;;2.77;0.30;;;18.80;99.90;;;;;;5054432;28;20271;-83
2022/05/12 01:37:07;;;;;;;0.60;0.60;;;18.80;99.90;;;;;;5053057;28;20694;-83
2022/05/12 01:39:35;;;;;;;0.43;0.43;;;18.80;99.90;;;;;;5054430;28;20283;-82
2022/05/12 01:42:05;;;;;;;0.30;0.30;;;18.80;99.90;;;;;;5071948;28;20830;-83
2022/05/12 01:44:31;;;;;;;0.23;0.23;;;18.80;99.90;;;;;;5070766;28;20212;-83
2022/05/12 01:46:57;;;;;;;0.50;0.23;;;18.70;99.90;;;;;;5054034;28;20194;-83
2022/05/12 01:49:23;;;;;;;0.30;0.30;;;18.70;99.90;;;;;;5055478;28;20194;-82
2022/05/12 01:51:53;;;;;;;1.33;0.50;;;18.70;99.90;;;;;;5055948;28;20192;-83
2022/05/12 01:54:18;;;;;;;0.50;0.50;;;18.70;99.90;;;;;;5053592;28;20737;-82
2022/05/12 01:56:44;;;;;;;0.30;0.30;;;18.70;99.90;;;;;;5073963;28;20259;-82
2022/05/12 01:59:09;;;;;;;0.20;0.20;;;18.60;99.90;;;;;;5053239;28;20189;-84
2022/05/12 02:01:35;;;;;;;0.10;0.10;;;18.60;99.90;;;;;;5055375;28;20566;-82
2022/05/12 02:04:02;;;;;;;0.37;0.37;;;18.60;99.90;;;;;;5071666;28;20206;-83
2022/05/12 02:06:28;;;;;;;0.40;0.40;;;18.60;99.90;;;;;;5052806;28;20192;-83
2022/05/12 02:08:53;;;;;;;0.50;0.50;;;18.60;99.90;;;;;;5055323;28;20223;-83
2022/05/12 02:11:19;;;;;;;0.10;0.10;;;18.60;99.90;;;;;;5053900;28;22282;-84
2022/05/12 02:13:44;;;;;;;0.27;0.27;;;18.70;99.90;;;;;;5051531;28;20241;-83
2022/05/12 02:16:10;;;;;;;0.33;0.30;;;18.70;99.90;;;;;;5053838;28;20240;-82
2022/05/12 02:18:35;;;;;;;1.03;0.40;;;18.70;99.90;;;;;;5071857;28;20603;-83
2022/05/12 02:21:01;;;;;;;0.40;0.40;;;18.80;99.90;;;;;;5042034;28;20190;-83
2022/05/12 02:23:26;;;;;;;0.30;0.30;;;18.80;99.90;;;;;;5041440;28;20196;-83
2022/05/12 02:25:52;;;;;;;0.10;0.10;;;18.80;99.90;;;;;;5040817;28;20189;-82
2022/05/12 02:28:18;;;;;;;0.30;0.30;;;18.70;99.90;;;;;;5038274;28;20306;-83
2022/05/12 02:30:44;;;;;;;0.30;0.30;;;18.70;99.90;;;;;;5075026;28;20273;-83
2022/05/12 02:33:10;;;;;;;0.20;0.20;;;18.60;99.90;;;;;;5042077;28;20667;-83
2022/05/12 02:35:36;;;;;;;0.20;0.20;;;18.60;99.90;;;;;;5059523;28;21005;-83
2022/05/12 02:38:03;;;;;;;0.97;0.27;;;18.60;99.90;;;;;;5058011;28;20181;-82
2022/05/12 02:40:29;;;;;;;0.20;0.20;;;18.50;99.90;;;;;;5041178;28;20204;-83
2022/05/12 02:42:56;;;;;;;0.40;0.40;;;18.50;99.90;;;;;;5058572;28;20570;-83
2022/05/12 02:45:22;;;;;;;0.40;0.30;;;18.50;99.90;;;;;;5039856;28;20205;-83
2022/05/12 02:47:48;;;;;;;0.27;0.27;;;18.50;99.90;;;;;;5058958;28;20202;-82
2022/05/12 02:50:15;;;;;;;0.10;0.10;;;18.40;99.90;;;;;;5042190;28;20218;-83
2022/05/12 02:52:42;;;;;;;0.30;0.30;;;18.40;99.90;;;;;;5040017;28;20185;-83
2022/05/12 02:55:08;;;;;;;0.10;0.10;;;18.30;99.90;;;;;;5041024;28;20241;-82
2022/05/12 02:57:34;;;;;;;0.17;0.17;;;18.30;99.90;;;;;;5042099;28;20198;-83
2022/05/12 03:00:01;;;;;;;0.23;0.23;;;18.30;99.90;;;;;;5040303;28;20178;-83
2022/05/12 03:02:26;;;;;;;0.40;0.40;;;18.30;99.90;;;;;;5041600;28;20196;-82
2022/05/12 03:04:52;;;;;;;0.10;0.10;;;18.20;99.90;;;;;;5043185;28;21055;-83
2022/05/12 03:07:17;;;;;;;0.17;0.17;;;18.20;99.90;;;;;;5040610;28;20192;-82
2022/05/12 03:09:43;;;;;;;0.30;0.30;;;18.30;99.90;;;;;;5058725;28;20223;-84
2022/05/12 03:12:09;;;;;;;0.30;0.30;;;18.30;99.90;;;;;;5057667;28;20185;-83
2022/05/12 03:14:34;;;;;;;0.20;0.20;;;18.30;99.90;;;;;;5059231;28;20206;-82
2022/05/12 03:17:00;;;;;;;0.10;0.10;;;18.30;99.90;;;;;;5042110;28;20177;-82
2022/05/12 03:19:25;;;;;;;0.30;0.30;;;18.40;99.90;;;;;;5060782;28;20209;-83
2022/05/12 03:21:51;;;;;;;0.10;0.10;;;18.40;99.90;;;;;;5041133;28;20859;-83
2022/05/12 03:24:18;;;;;;;0.23;0.23;;;18.50;99.90;;;;;;5039775;28;20247;-83
2022/05/12 03:26:45;;;;;;;0.33;0.30;;;18.50;99.90;;;;;;5039921;28;20592;-83
2022/05/12 03:29:10;;;;;;;0.10;0.10;;;18.60;99.90;;;;;;5040961;28;20213;-84
2022/05/12 03:31:36;;;;;;;0.17;0.17;;;18.40;99.90;;;;;;5056311;28;20560;-83
2022/05/12 03:34:02;;;;;;;0.23;0.23;;;18.40;99.90;;;;;;5039736;28;20222;-83
2022/05/12 03:36:28;;;;;;;0.30;0.30;;;18.40;99.90;;;;;;5039801;28;20178;-82
2022/05/12 03:38:53;;;;;;;4.73;1.93;;;18.40;99.90;;;;;;5040567;28;20189;-82
2022/05/12 03:41:19;;;;;;;0.20;0.20;;;18.30;99.90;;;;;;5058451;28;20187;-83
2022/05/12 03:46:32;;;;;;;0.20;0.20;;;18.30;99.90;;;;;;5057484;28;20880;-84
2022/05/12 03:48:59;;;;;;;0.20;0.20;;;18.40;99.90;;;;;;5056338;28;20209;-82
2022/05/12 03:51:25;;;;;;;0.60;0.60;;;18.40;99.90;;;;;;5058163;28;20794;-82
2022/05/12 03:53:50;;;;;;;0.43;0.27;;;18.40;99.90;;;;;;5057393;28;20202;-82
2022/05/12 03:56:16;;;;;;;0.10;0.10;;;18.50;99.90;;;;;;5056059;28;20188;-83
2022/05/12 03:58:43;;;;;;;0.10;0.10;;;18.70;99.90;;;;;;5063139;28;20182;-83
2022/05/12 04:01:09;;;;;;;0.13;0.13;;;18.80;99.90;;;;;;5048649;28;21403;-83
2022/05/12 04:03:34;;;;;;;0.20;0.20;;;19.00;99.90;;;;;;5051672;28;20216;-82
2022/05/12 04:06:01;;;;;;;0.30;0.20;;;19.30;99.90;;;;;;5057946;28;20181;-83
2022/05/12 04:08:27;;;;;;;0.20;0.20;;;19.40;99.90;;;;;;5038048;28;20214;-83
2022/05/12 04:10:53;;;;;;;0.20;0.20;;;19.50;99.90;;;;;;5034766;28;20197;-83
2022/05/12 04:13:18;;;;;;;0.83;0.43;;;19.60;99.90;;;;;;5036424;28;20361;-83
2022/05/12 04:15:44;;;;;;;0.40;0.40;;;19.40;99.90;;;;;;5037650;28;20676;-82
2022/05/12 04:18:10;;;;;;;0.83;0.83;;;19.30;99.90;;;;;;5037622;28;20181;-83
2022/05/12 04:20:36;;;;;;;0.10;0.10;;;18.80;99.90;;;;;;5057406;28;20186;-83
2022/05/12 04:23:02;;;;;;;0.20;0.20;;;18.50;99.90;;;;;;5038241;28;20193;-84
2022/05/12 04:25:28;;;;;;;2.63;0.67;;;18.50;99.90;;;;;;5037187;28;20205;-84
2022/05/12 04:27:54;;;;;;;0.17;0.17;;;18.40;99.90;;;;;;5052089;28;20208;-83
2022/05/12 04:30:24;;;;;;;0.50;0.50;;;18.60;99.90;;;;;;5036391;28;20181;-84
2022/05/12 04:32:49;;;;;;;0.37;0.37;;;18.70;99.90;;;;;;5035216;28;20228;-84
2022/05/12 04:35:15;;;;;;;1.80;0.87;;;18.80;99.90;;;;;;5036695;28;20623;-84
2022/05/12 04:37:50;;;;;;;0.30;0.30;;;18.80;99.90;;;;;;5036256;28;20209;-84
2022/05/12 04:40:28;;;;;;;0.30;0.30;;;18.90;99.90;;;;;;5036062;28;20182;-83
2022/05/12 04:42:56;;;;;;;1.47;1.37;;;18.90;99.90;;;;;;5054497;28;20192;-83
2022/05/12 04:45:23;;;;;;;0.40;0.40;;;18.80;99.90;;;;;;5036885;28;20197;-83
2022/05/12 04:47:50;;;;;;;0.30;0.30;;;18.40;99.90;;;;;;5069444;28;20206;-83
2022/05/12 04:50:21;;;;;;;0.30;0.20;;;18.30;99.90;;;;;;5034974;28;20626;-83
2022/05/12 04:52:47;;;;;;;0.30;0.30;;;18.50;99.90;;;;;;5036508;28;20227;-83
2022/05/12 04:55:14;;;;;;;1.03;0.97;;;18.40;99.90;;;;;;5054216;28;20224;-83
2022/05/12 04:57:42;;;;;;;0.10;0.10;;;18.40;99.90;;;;;;5036257;28;20695;-84
2022/05/12 05:00:13;;;;;;;0.83;0.40;;;18.40;99.90;;;;;;5038251;28;20189;-84
2022/05/12 05:02:39;;;;;;;0.20;0.20;;;18.30;99.90;;;;;;5069923;28;20189;-84
2022/05/12 05:05:05;;;;;;;0.17;0.17;;;18.10;99.90;;;;;;5053741;28;20208;-84
2022/05/12 05:07:31;;;;;;;0.20;0.20;;;18.10;99.90;;;;;;5036056;28;20566;-84
2022/05/12 05:09:57;;;;;;;0.20;0.20;;;18.10;99.90;;;;;;5036170;28;20751;-84
2022/05/12 05:12:23;;;;;;;2.43;0.30;;;18.20;99.90;;;;;;5054228;28;20262;-84
2022/05/12 05:14:48;;;;;;;0.70;0.43;;;18.60;99.90;;;;;;5052354;28;20209;-84
2022/05/12 05:17:14;;;;;;;0.20;0.20;;;18.50;99.90;;;;;;5036329;28;20192;-84
2022/05/12 05:19:41;;;;;;;0.50;0.50;;;18.60;99.90;;;;;;5037565;28;20272;-81
2022/05/12 05:22:07;;;;;;;0.20;0.20;;;18.50;99.90;;;;;;5036737;28;20207;-81
2022/05/12 05:24:32;;;;;;;0.77;0.47;;;18.50;99.90;;;;;;5055176;28;20244;-81
2022/05/12 05:26:58;;;;;;;0.10;0.10;;;18.50;99.90;;;;;;5038622;28;20669;-81
2022/05/12 05:29:23;;;;;;;0.10;0.10;;;18.80;99.90;;;;;;5034798;28;20208;-80
2022/05/12 05:31:49;;;;;;;0.17;0.17;;;18.80;99.90;;;;;;5056076;28;20273;-87
2022/05/12 05:34:15;;;;;;;0.10;0.10;;;18.70;99.90;;;;;;5036003;28;20321;-82
2022/05/12 05:36:44;;;;;;;0.23;0.23;;;18.60;99.90;;;;;;5054851;28;20205;-82
2022/05/12 05:39:22;;;;;;;0.20;0.20;;;18.80;99.90;;;;;;5032354;28;20184;-83
2022/05/12 05:41:49;;;;;;;0.67;0.40;;;18.90;99.90;;;;;;5049144;28;20178;-83
2022/05/12 05:44:14;;;;;;;0.10;0.10;;;19.10;99.90;;;;;;5054708;28;20212;-83
2022/05/12 05:46:40;;;;;;;1.13;0.50;;;19.10;99.90;;;;;;5038030;28;20276;-83
2022/05/12 05:49:05;;;;;;;0.10;0.10;;;18.90;99.90;;;;;;5038492;28;20805;-82
2022/05/12 05:54:15;;;;;;;0.10;0.10;;;18.70;99.90;;;;;;5056085;28;20224;-83
2022/05/12 05:56:41;;;;;;;0.13;0.13;;;18.70;99.90;;;;;;5059905;28;20186;-82
2022/05/12 05:59:06;;;;;;;0.20;0.20;;;18.90;99.90;;;;;;5040074;28;20196;-83
2022/05/12 06:01:32;;;;;;;0.30;0.30;;;19.10;99.90;;;;;;5041703;28;20181;-83
2022/05/12 06:03:58;;;;;;;0.63;0.30;;;19.30;99.90;;;;;;5060367;28;20701;-83
2022/05/12 06:06:24;;;;;;;0.10;0.10;;;19.50;99.90;;;;;;5040760;28;20565;-83
2022/05/12 06:08:49;;;;;;;2.33;0.40;;;19.50;99.90;;;;;;5057036;28;20229;-81
2022/05/12 06:11:15;;;;;;;0.57;0.43;;;19.50;99.90;;;;;;5056917;28;20176;-82
2022/05/12 06:13:41;;;;;;;0.20;0.20;;;19.50;99.90;;;;;;5039058;28;20351;-82
2022/05/12 06:16:06;;;;;;;0.37;0.30;;;19.70;99.90;;;;;;5055093;28;20187;-84
2022/05/12 06:18:32;;;;;;;0.40;0.40;;;19.80;99.90;;;;;;5055667;28;20204;-84
2022/05/12 06:20:58;;;;;;;0.30;0.20;;;20.00;99.90;;;;;;5057080;28;20243;-83
2022/05/12 06:23:23;;;;;;;0.20;0.20;;;20.10;99.90;;;;;;5037381;28;20190;-84
2022/05/12 06:25:50;;;;;;;0.83;0.43;;;20.10;99.90;;;;;;5055765;28;20200;-82
2022/05/12 06:28:16;;;;;;;0.50;0.50;;;20.10;99.90;;;;;;5054093;28;20200;-83
2022/05/12 06:30:41;;;;;;;0.30;0.30;;;20.00;99.90;;;;;;5034661;28;21222;-83
2022/05/12 06:33:07;;;;;;;0.40;0.40;;;20.00;99.90;;;;;;5037357;28;20198;-84
2022/05/12 06:35:33;;;;;;;0.73;0.50;;;19.80;99.90;;;;;;5038280;28;20197;-84
2022/05/12 06:37:59;;;;;;;0.10;0.10;;;19.90;99.90;;;;;;5038259;28;20192;-84
2022/05/12 06:40:25;;;;;;;0.20;0.20;;;19.90;99.90;;;;;;5039674;28;20584;-84
2022/05/12 06:42:51;;;;;;;0.13;0.13;;;19.90;99.90;;;;;;5072617;28;20185;-84
2022/05/12 06:45:19;;;;;;;0.20;0.20;;;20.00;99.90;;;;;;5040244;28;20205;-83
2022/05/12 06:47:48;;;;;;;0.23;0.23;;;20.00;99.90;;;;;;5038488;28;20192;-84
2022/05/12 06:50:15;;;;;;;0.10;0.10;;;20.10;99.90;;;;;;5039420;28;20236;-84
2022/05/12 06:52:41;;;;;;;0.23;0.23;;;20.00;99.90;;;;;;5056937;28;20730;-84
2022/05/12 06:55:07;;;;;;;0.40;0.40;;;20.10;99.90;;;;;;5054018;28;20208;-84
2022/05/12 06:57:33;;;;;;;0.97;0.60;;;20.20;99.90;;;;;;5057169;28;20558;-84
2022/05/12 06:59:58;;;;;;;0.30;0.30;;;20.20;99.90;;;;;;5039213;28;20251;-84
2022/05/12 07:02:25;;;;;;;0.30;0.30;;;20.30;99.90;;;;;;5054092;28;20237;-82
2022/05/12 07:04:53;;;;;;;1.07;0.30;;;20.50;99.90;;;;;;5036934;28;20209;-84
2022/05/12 07:07:20;;;;;;;0.20;0.20;;;20.50;99.90;;;;;;5053601;28;20239;-84
2022/05/12 07:09:46;;;;;;;0.63;0.27;;;20.40;99.90;;;;;;5037408;28;20303;-84
2022/05/12 07:12:13;;;;;;;0.73;0.40;;;20.30;99.90;;;;;;5054536;28;20235;-84
2022/05/12 07:14:38;;;;;;;0.40;0.40;;;20.40;99.90;;;;;;5056765;28;20200;-84
2022/05/12 07:17:04;;;;;;;0.30;0.30;;;20.80;99.90;;;;;;5057073;28;20181;-83
2022/05/12 07:19:32;;;;;;;0.20;0.20;;;21.00;99.90;;;;;;5055199;28;20260;-84
2022/05/12 07:27:26;;;;;;;0.30;0.30;;;21.00;99.90;;;;;;5055664;28;20203;-83
2022/05/12 07:29:51;;;;;;;0.27;0.27;;;21.20;99.90;;;;;;5034552;28;20210;-84
2022/05/12 07:32:17;;;;;;;0.27;0.27;;;21.10;99.90;;;;;;5038836;28;20192;-85
2022/05/12 07:34:43;;;;;;;0.30;0.30;;;21.20;99.90;;;;;;5055524;28;20207;-84
2022/05/12 07:37:08;;;;;;;0.67;0.67;;;21.30;99.90;;;;;;5037638;28;20190;-84
2022/05/12 07:39:35;;;;;;;0.20;0.20;;;21.50;99.90;;;;;;5037616;28;20186;-84
2022/05/12 07:42:03;;;;;;;0.40;0.40;;;21.70;99.90;;;;;;5039089;28;20197;-82
2022/05/12 07:44:32;;;;;;;0.43;0.43;;;21.60;99.90;;;;;;5041348;28;20577;-83
2022/05/12 07:47:00;;;;;;;0.83;0.47;;;21.50;99.90;;;;;;5055274;28;20825;-84
2022/05/12 07:49:31;;;;;;;0.20;0.20;;;21.60;99.90;;;;;;5039376;28;20292;-84
2022/05/12 07:51:58;;;;;;;0.53;0.30;;;21.70;99.90;;;;;;5057421;28;20649;-84
2022/05/12 07:54:23;;;;;;;0.37;0.37;;;21.90;99.90;;;;;;5054939;28;20207;-84
2022/05/12 07:56:49;;;;;;;0.30;0.30;;;22.10;99.90;;;;;;5035807;28;20185;-83
2022/05/12 07:59:14;;;;;;;0.83;0.63;;;22.20;99.90;;;;;;5052912;28;20217;-83
2022/05/12 08:01:40;;;;;;;0.30;0.30;;;22.00;99.90;;;;;;5032032;28;20185;-83
2022/05/12 08:04:06;;;;;;;0.30;0.30;;;22.00;99.90;;;;;;5052312;28;20660;-83
2022/05/12 08:06:32;;;;;;;0.23;0.20;;;22.20;99.90;;;;;;5055024;28;20754;-82
2022/05/12 08:08:57;;;;;;;0.73;0.73;;;22.40;99.90;;;;;;5069311;28;20299;-83
2022/05/12 08:11:24;;;;;;;0.20;0.20;;;22.20;99.90;;;;;;5036051;28;20177;-81
2022/05/12 08:13:50;;;;;;;0.20;0.20;;;22.30;99.90;;;;;;5036112;28;20205;-80
2022/05/12 08:16:21;;;;;;;0.17;0.17;;;22.60;99.90;;;;;;5056268;28;20266;-83
2022/05/12 08:18:49;;;;;;;1.57;1.07;;;22.90;99.90;;;;;;5052836;28;20636;-83
2022/05/12 08:21:16;;;;;;;1.70;0.40;;;22.80;99.90;;;;;;5055703;28;20189;-80
2022/05/12 08:23:42;;;;;;;0.13;0.13;;;23.00;99.90;;;;;;5036376;28;20699;-80
2022/05/12 08:26:07;;;;;;;0.30;0.30;;;23.20;99.90;;;;;;5035671;28;20189;-81
2022/05/12 08:28:33;;;;;;;0.30;0.30;;;23.10;99.90;;;;;;5037004;28;20284;-83
2022/05/12 08:30:58;;;;;;;0.20;0.20;;;23.20;99.90;;;;;;5035217;28;20945;-83
2022/05/12 08:33:25;;;;;;;0.27;0.27;;;23.40;99.90;;;;;;5056395;28;20188;-83
2022/05/12 08:35:50;;;;;;;0.20;0.20;;;23.60;99.90;;;;;;5055804;28;20217;-83
2022/05/12 08:38:19;;;;;;;0.10;0.10;;;23.40;99.90;;;;;;5055071;28;21180;-83
2022/05/12 08:41:03;;;;;;;0.30;0.30;;;23.20;99.90;;;;;;5034361;28;20732;-81
2022/05/12 08:43:45;;;;;;;0.23;0.23;;;23.30;99.90;;;;;;5038282;28;20211;-80
2022/05/12 08:46:54;;;;;;;0.13;0.13;;;23.20;99.90;;;;;;5052233;28;20739;-81
2022/05/12 08:49:23;;;;;;;0.20;0.20;;;23.30;99.90;;;;;;5055342;28;20327;-81
2022/05/12 08:52:04;;;;;;;0.53;0.50;;;23.60;99.90;;;;;;5037371;28;20634;-81
2022/05/12 08:54:31;;;;;;;0.87;0.63;;;23.70;99.90;;;;;;5057132;28;20285;-81
2022/05/12 08:57:04;;;;;;;0.30;0.30;;;24.00;99.90;;;;;;5053868;28;20177;-80
2022/05/12 08:59:32;;;;;;;0.50;0.30;;;24.00;99.90;;;;;;5057672;28;20181;-81
2022/05/12 09:02:32;;;;;;;0.10;0.10;;;24.10;99.90;;;;;;5037998;28;20250;-81
2022/05/12 09:05:07;;;;;;;0.13;0.13;;;24.40;99.90;;;;;;5037434;28;20584;-81
2022/05/12 09:07:45;;;;;;;0.37;0.30;;;24.10;99.90;;;;;;5037489;28;20181;-81
2022/05/12 09:10:22;;;;;;;0.80;0.80;;;24.10;99.90;;;;;;5054621;28;20193;-80
2022/05/12 09:12:57;;;;;;;0.30;0.30;;;24.30;99.90;;;;;;5036312;28;20185;-80
2022/05/12 09:15:27;;;;;;;0.40;0.40;;;24.20;99.90;;;;;;5055344;28;20267;-81
2022/05/12 09:18:24;;;;;;;0.27;0.27;;;24.10;99.90;;;;;;5053835;28;20185;-80
2022/05/12 09:20:49;;;;;;;1.10;0.70;;;24.30;99.90;;;;;;5055602;28;20193;-82
2022/05/12 09:23:15;;;;;;;0.40;0.40;;;24.40;99.90;;;;;;5054974;28;20239;-82
2022/05/12 09:25:44;;;;;;;0.53;0.43;;;24.40;99.90;;;;;;5053700;28;20197;-82
2022/05/12 09:28:24;;;;;;;0.30;0.30;;;24.00;99.90;;;;;;5054039;28;21665;-84
2022/05/12 09:30:50;;;;;;;0.40;0.40;;;24.00;99.90;;;;;;5054886;28;20994;-84
2022/05/12 09:33:51;;;;;;;0.10;0.10;;;23.90;99.90;;;;;;5074356;28;20200;-84
2022/05/12 09:36:25;;;;;;;0.57;0.30;;;24.00;99.90;;;;;;5049245;28;20609;-84
2022/05/12 09:38:54;;;;;;;0.20;0.20;;;24.20;99.90;;;;;;5040827;28;20234;-84
2022/05/12 09:41:23;;;;;;;0.17;0.17;;;24.30;99.90;;;;;;5042290;28;20743;-84
2022/05/12 09:43:54;;;;;;;0.20;0.20;;;24.30;99.90;;;;;;5039663;28;20304;-84
2022/05/12 09:46:29;;;;;;;0.40;0.40;;;24.20;99.90;;;;;;5057553;28;20284;-84
2022/05/12 09:49:15;;;;;;;0.20;0.20;;;24.10;99.90;;;;;;5060077;28;20289;-84
2022/05/12 09:51:40;;;;;;;0.30;0.30;;;23.80;99.90;;;;;;5059390;28;20185;-84
2022/05/12 09:54:16;;;;;;;0.10;0.10;;;23.90;99.90;;;;;;5060058;28;20213;-84
2022/05/12 09:56:46;;;;;;;0.23;0.23;;;23.90;99.90;;;;;;5061212;28;20231;-84
2022/05/12 09:59:14;;;;;;;0.20;0.20;;;24.20;99.90;;;;;;5041551;28;20592;-83
2022/05/12 10:02:02;;;;;;;0.20;0.20;;;24.10;99.90;;;;;;5042239;28;20283;-83
2022/05/12 10:10:16;;;;;;;0.20;0.20;;;24.00;99.90;;;;;;5058962;28;20299;-84
2022/05/12 10:12:48;;;;;;;0.50;0.40;;;24.10;99.90;;;;;;5059862;28;20196;-84
2022/05/12 10:15:51;;;;;;;0.23;0.23;;;23.90;99.90;;;;;;5059606;28;20196;-83
2022/05/12 10:18:31;;;;;;;0.20;0.20;;;24.40;99.90;;;;;;4961387;28;20183;-84
2022/05/12 10:21:21;;;;;;;0.53;0.30;;;24.50;99.90;;;;;;5051973;28;20577;-84
2022/05/12 10:24:11;;;;;;;0.23;0.23;;;24.90;99.90;;;;;;5058140;28;20294;-84
2022/05/12 10:26:43;;;;;;;0.30;0.30;;;24.60;99.90;;;;;;5059352;28;20181;-84
2022/05/12 10:29:38;;;;;;;0.30;0.30;;;25.00;99.90;;;;;;5041394;28;20209;-84
2022/05/12 10:32:06;;;;;;;0.20;0.20;;;25.00;99.90;;;;;;5058527;28;20181;-83
2022/05/12 10:34:40;;;;;;;0.20;0.20;;;25.20;99.90;;;;;;5040307;28;20193;-83
2022/05/12 10:37:21;;;;;;;0.13;0.13;;;25.30;99.90;;;;;;5058547;28;20176;-84
2022/05/12 10:40:22;;;;;;;0.83;0.30;;;25.50;99.90;;;;;;5041685;28;20639;-84
2022/05/12 10:43:10;;;;;;;0.20;0.20;;;25.60;99.90;;;;;;5041520;28;20247;-84
2022/05/12 10:45:59;;;;;;;1.03;0.20;;;25.80;99.90;;;;;;5042281;28;20216;-83
2022/05/12 10:48:56;;;;;;;0.10;0.10;;;25.70;99.90;;;;;;5072878;28;20193;-84
2022/05/12 10:51:59;;;;;;;0.87;0.23;;;25.90;99.90;;;;;;5040426;28;20261;-84
2022/05/12 10:54:51;;;;;;;0.10;0.10;;;25.90;99.90;;;;;;5040264;28;20197;-84
2022/05/12 10:57:38;;;;;;;0.63;0.40;;;25.60;99.90;;;;;;5027853;28;20181;-84
2022/05/12 11:00:32;;;;;;;0.27;0.27;;;25.50;99.90;;;;;;5041885;28;20213;-84
2022/05/12 11:03:09;;;;;;;0.20;0.20;;;25.50;99.90;;;;;;5058774;28;20185;-83
2022/05/12 11:05:42;;;;;;;0.10;0.10;;;25.70;99.90;;;;;;5055688;28;20605;-83
2022/05/12 11:08:23;;;;;;;0.20;0.20;;;25.70;99.90;;;;;;5039109;28;21099;-84
2022/05/12 11:11:25;;;;;;;0.10;0.10;;;25.70;99.90;;;;;;5072263;28;20188;-84
2022/05/12 11:14:33;;;;;;;0.40;0.40;;;26.30;99.90;;;;;;5021636;28;20241;-83
2022/05/12 11:17:30;;;;;;;0.10;0.10;;;26.60;99.90;;;;;;5036779;28;20250;-84
2022/05/12 11:20:25;;;;;;;0.13;0.13;;;26.20;99.90;;;;;;5040175;28;20197;-84
2022/05/12 11:23:25;;;;;;;0.13;0.13;;;26.30;99.90;;;;;;5056368;28;20663;-83
2022/05/12 11:26:15;;;;;;;0.20;0.20;;;26.40;99.90;;;;;;5073221;28;20186;-84
2022/05/12 11:32:15;;;;;;;0.27;0.27;;;26.10;99.90;;;;;;5058981;28;20253;-84
2022/05/12 11:34:45;;;;;;;0.10;0.10;;;25.80;99.90;;;;;;5058083;28;20552;-84
2022/05/12 11:37:32;;;;;;;0.10;0.10;;;25.90;99.90;;;;;;5057126;28;20170;-84
2022/05/12 11:40:03;;;;;;;3.03;0.83;;;26.50;99.90;;;;;;5058997;28;20188;-84
2022/05/12 11:44:24;;;;;;;0.70;0.30;;;26.20;99.90;;;;;;5056071;28;20181;-84
2022/05/12 11:45:41;;;;;;;0.10;0.10;;;26.00;99.90;;;;;;5056626;28;20234;-84
2022/05/12 11:48:45;;;;;;;0.60;0.60;;;26.30;99.90;;;;;;5055476;28;20658;-84
2022/05/12 11:51:23;;;;;;;0.57;0.37;;;26.40;99.90;;;;;;5056543;28;20215;-84
2022/05/12 11:54:00;;;;;;;0.27;0.27;;;26.10;99.90;;;;;;5054757;28;20205;-83
2022/05/12 11:56:46;;;;;;;0.10;0.10;;;25.90;99.90;;;;;;5037815;28;20173;-84
2022/05/12 11:59:33;;;;;;;1.50;1.17;;;25.90;99.90;;;;;;5056127;28;20225;-84
2022/05/12 12:02:06;;;;;;;0.10;0.10;;;25.70;99.90;;;;;;5028236;28;20271;-84
2022/05/12 12:04:48;;;;;;;0.20;0.20;;;25.90;99.90;;;;;;5038555;28;20205;-83
2022/05/12 12:07:21;;;;;;;0.20;0.20;;;26.00;99.90;;;;;;5056682;28;20176;-84
2022/05/12 12:09:46;;;;;;;0.10;0.10;;;26.10;99.90;;;;;;5056835;28;20213;-84
2022/05/12 12:12:41;;;;;;;0.10;0.10;;;25.90;99.90;;;;;;5055124;28;20181;-84
2022/05/12 12:15:08;;;;;;;0.60;0.53;;;26.10;99.90;;;;;;5055798;28;20209;-84
2022/05/12 12:17:37;;;;;;;0.10;0.10;;;26.40;99.90;;;;;;5037934;28;20658;-84
2022/05/12 12:20:09;;;;;;;0.63;0.30;;;26.40;99.90;;;;;;5038210;28;20217;-84
2022/05/12 12:22:37;;;;;;;0.33;0.30;;;26.40;99.90;;;;;;5071378;28;20192;-84
2022/05/12 12:25:09;;;;;;;0.40;0.40;;;26.10;99.90;;;;;;5038774;28;20209;-84
2022/05/12 12:27:52;;;;;;;0.30;0.30;;;25.90;99.90;;;;;;5038438;28;20185;-84
2022/05/12 12:30:18;;;;;;;0.13;0.13;;;26.00;99.90;;;;;;5070504;28;20232;-84
2022/05/12 12:33:06;;;;;;;0.10;0.10;;;26.20;99.90;;;;;;5054355;28;20208;-84
2022/05/12 12:35:52;;;;;;;0.30;0.30;;;26.40;99.90;;;;;;5038366;28;20216;-84
2022/05/12 12:38:49;;;;;;;0.17;0.17;;;26.70;99.90;;;;;;5057093;28;20815;-84
2022/05/12 12:41:15;;;;;;;0.10;0.10;;;26.60;99.90;;;;;;5056321;28;20189;-84
2022/05/12 12:43:54;;;;;;;0.20;0.20;;;26.60;99.90;;;;;;5056005;28;20319;-84
2022/05/12 12:46:35;;;;;;;0.20;0.20;;;26.50;99.90;;;;;;5035110;28;20649;-84
2022/05/12 12:49:10;;;;;;;3.43;0.40;;;26.50;99.90;;;;;;5037026;28;21023;-84
2022/05/12 12:51:39;;;;;;;2.10;0.30;;;26.60;99.90;;;;;;5056305;28;20192;-84
2022/05/12 12:57:15;;;;;;;0.20;0.20;;;26.50;99.90;;;;;;5055883;28;20688;-85
2022/05/12 12:59:54;;;;;;;0.20;0.20;;;26.40;99.90;;;;;;5054507;28;20275;-83
2022/05/12 13:02:25;;;;;;;0.17;0.17;;;26.10;99.90;;;;;;5038499;28;20184;-84
2022/05/12 13:04:57;;;;;;;0.73;0.30;;;26.10;99.90;;;;;;5057269;28;20208;-84
2022/05/12 13:07:35;;;;;;;0.10;0.10;;;26.20;99.90;;;;;;5037432;28;20213;-84
2022/05/12 13:10:07;;;;;;;0.20;0.20;;;26.50;99.90;;;;;;5037764;28;20208;-84
2022/05/12 13:12:34;;;;;;;0.23;0.20;;;26.50;99.90;;;;;;5036281;28;20170;-84
2022/05/12 13:15:00;;;;;;;1.30;0.57;;;26.40;99.90;;;;;;5036692;28;20216;-84
2022/05/12 13:17:34;;;;;;;1.13;0.30;;;26.20;99.90;;;;;;5036273;28;20213;-84
2022/05/12 13:20:00;;;;;;;0.43;0.43;;;26.20;99.90;;;;;;5032292;28;20192;-84
2022/05/12 13:22:32;;;;;;;0.20;0.20;;;26.50;99.90;;;;;;5067980;28;20185;-84
2022/05/12 13:24:58;;;;;;;0.20;0.20;;;26.40;99.90;;;;;;5034467;28;20212;-84
2022/05/12 13:27:35;;;;;;;0.43;0.43;;;26.40;99.90;;;;;;5054105;28;20184;-84
2022/05/12 13:30:03;;;;;;;0.20;0.20;;;26.30;99.90;;;;;;5034974;28;20205;-84